[jhb_airlines] Re: Bad weather

  • From: "Fred Stopforth" <fredstopforth@xxxxxxxxxxxxxx>
  • To: <jhb_airlines@xxxxxxxxxxxxx>
  • Date: Sun, 27 Jul 2008 07:42:23 +0100

This E-Mail was received this morning July27 so not able to take the challenge.Have experienced an occassional spate of slow downloads yesterday. Fred ----- Original Message ----- From: "Bones" <bones@xxxxxxx>

To: "JHB Airlines Email List " <jhb_airlines@xxxxxxxxxxxxx>
Sent: Saturday, July 26, 2008 8:23 PM
Subject: [jhb_airlines] Bad weather


EGNS is currently out in fog:

EGNS 261850Z 25004KT 0600 FG SCT000 BKN001 15/14 Q1016 TEMPO 2000 BKN002

If anyone is interested in the challenge I'll open up on IVAO.

bones
bones@xxxxxxx
http://woodair.net





No virus found in this incoming message.
Checked by AVG - http://www.avg.com
Version: 8.0.138 / Virus Database: 270.5.6/1574 - Release Date: 7/25/2008 4:27 PM





Other related posts: